sensor_id;sensor_type;location;lat;lon;timestamp;pressure;altitude;pressure_sealevel;temperature;humidity
16834;BME280;8533;48.426;10.868;2022-12-01T00:01:00;96565.94;;;1.75;100.00
16834;BME280;8533;48.426;10.868;2022-12-01T00:03:29;96563.71;;;1.72;100.00
16834;BME280;8533;48.426;10.868;2022-12-01T00:06:04;96562.80;;;1.69;100.00
16834;BME280;8533;48.426;10.868;2022-12-01T00:08:31;96564.02;;;1.73;100.00
16834;BME280;8533;48.426;10.868;2022-12-01T00:11:10;96556.29;;;1.73;100.00
16834;BME280;8533;48.426;10.868;2022-12-01T00:13:37;96557.23;;;1.76;100.00
16834;BME280;8533;48.426;10.868;2022-12-01T00:16:15;96551.52;;;1.70;100.00
16834;BME280;8533;48.426;10.868;2022-12-01T00:18:42;96553.45;;;1.68;100.00
16834;BME280;8533;48.426;10.868;2022-12-01T00:21:17;96559.91;;;1.68;100.00
16834;BME280;8533;48.426;10.868;2022-12-01T00:23:45;96550.56;;;1.67;100.00
16834;BME280;8533;48.426;10.868;2022-12-01T00:26:13;96552.27;;;1.60;100.00
16834;BME280;8533;48.426;10.868;2022-12-01T00:28:41;96544.64;;;1.63;100.00
16834;BME280;8533;48.426;10.868;2022-12-01T00:31:09;96545.50;;;1.59;100.00
16834;BME280;8533;48.426;10.868;2022-12-01T00:36:05;96543.10;;;1.58;100.00
16834;BME280;8533;48.426;10.868;2022-12-01T00:38:33;96544.88;;;1.57;100.00
16834;BME280;8533;48.426;10.868;2022-12-01T00:41:01;96542.30;;;1.57;100.00
16834;BME280;8533;48.426;10.868;2022-12-01T00:43:28;96537.80;;;1.55;100.00
16834;BME280;8533;48.426;10.868;2022-12-01T00:45:56;96547.52;;;1.53;100.00
16834;BME280;8533;48.426;10.868;2022-12-01T00:48:24;96546.82;;;1.55;100.00
16834;BME280;8533;48.426;10.868;2022-12-01T00:50:52;96553.95;;;1.53;100.00
16834;BME280;8533;48.426;10.868;2022-12-01T00:53:19;96549.61;;;1.53;100.00
16834;BME280;8533;48.426;10.868;2022-12-01T00:55:47;96554.30;;;1.50;100.00
16834;BME280;8533;48.426;10.868;2022-12-01T00:58:14;96553.27;;;1.55;100.00
16834;BME280;8533;48.426;10.868;2022-12-01T01:00:42;96549.12;;;1.54;100.00
16834;BME280;8533;48.426;10.868;2022-12-01T01:03:10;96551.80;;;1.57;100.00
16834;BME280;8533;48.426;10.868;2022-12-01T01:05:38;96554.88;;;1.56;100.00
16834;BME280;8533;48.426;10.868;2022-12-01T01:08:08;96552.58;;;1.61;100.00
16834;BME280;8533;48.426;10.868;2022-12-01T01:10:45;96557.91;;;1.60;100.00
16834;BME280;8533;48.426;10.868;2022-12-01T01:13:08;96560.97;;;1.59;100.00
16834;BME280;8533;48.426;10.868;2022-12-01T01:15:37;96555.05;;;1.54;100.00
16834;BME280;8533;48.426;10.868;2022-12-01T01:18:05;96551.98;;;1.55;100.00
16834;BME280;8533;48.426;10.868;2022-12-01T01:20:34;96554.18;;;1.62;100.00
16834;BME280;8533;48.426;10.868;2022-12-01T01:23:02;96556.96;;;1.57;100.00
16834;BME280;8533;48.426;10.868;2022-12-01T01:25:31;96561.45;;;1.59;100.00
16834;BME280;8533;48.426;10.868;2022-12-01T01:27:59;96557.73;;;1.61;100.00
16834;BME280;8533;48.426;10.868;2022-12-01T01:30:26;96556.70;;;1.66;100.00
16834;BME280;8533;48.426;10.868;2022-12-01T01:32:54;96557.73;;;1.61;100.00
16834;BME280;8533;48.426;10.868;2022-12-01T01:35:22;96553.00;;;1.65;100.00
16834;BME280;8533;48.426;10.868;2022-12-01T01:37:49;96559.37;;;1.58;100.00
16834;BME280;8533;48.426;10.868;2022-12-01T01:40:17;96559.05;;;1.57;100.00
16834;BME280;8533;48.426;10.868;2022-12-01T01:42:45;96556.96;;;1.57;100.00
16834;BME280;8533;48.426;10.868;2022-12-01T01:45:21;96556.93;;;1.61;100.00
16834;BME280;8533;48.426;10.868;2022-12-01T01:47:49;96561.59;;;1.61;100.00
16834;BME280;8533;48.426;10.868;2022-12-01T01:50:19;96559.20;;;1.60;100.00
16834;BME280;8533;48.426;10.868;2022-12-01T01:52:54;96555.75;;;1.63;100.00
16834;BME280;8533;48.426;10.868;2022-12-01T01:55:20;96552.83;;;1.66;100.00
16834;BME280;8533;48.426;10.868;2022-12-01T01:57:48;96562.02;;;1.65;100.00
16834;BME280;8533;48.426;10.868;2022-12-01T02:00:18;96556.70;;;1.66;100.00
16834;BME280;8533;48.426;10.868;2022-12-01T02:02:47;96548.96;;;1.66;100.00
16834;BME280;8533;48.426;10.868;2022-12-01T02:05:24;96557.98;;;1.66;100.00
16834;BME280;8533;48.426;10.868;2022-12-01T02:07:52;96553.17;;;1.63;100.00
16834;BME280;8533;48.426;10.868;2022-12-01T02:10:21;96553.49;;;1.64;100.00
16834;BME280;8533;48.426;10.868;2022-12-01T02:15:30;96548.40;;;1.60;100.00
16834;BME280;8533;48.426;10.868;2022-12-01T02:29:12;96542.44;;;1.60;100.00
16834;BME280;8533;48.426;10.868;2022-12-01T02:37:21;96541.67;;;1.55;100.00
16834;BME280;8533;48.426;10.868;2022-12-01T02:39:50;96538.92;;;1.57;100.00
16834;BME280;8533;48.426;10.868;2022-12-01T02:42:18;96543.27;;;1.56;100.00
16834;BME280;8533;48.426;10.868;2022-12-01T02:44:47;96540.20;;;1.57;100.00
16834;BME280;8533;48.426;10.868;2022-12-01T02:47:16;96539.58;;;1.54;100.00
16834;BME280;8533;48.426;10.868;2022-12-01T02:49:47;96541.98;;;1.56;100.00
16834;BME280;8533;48.426;10.868;2022-12-01T02:52:16;96543.24;;;1.60;100.00
16834;BME280;8533;48.426;10.868;2022-12-01T02:54:45;96539.72;;;1.57;100.00
16834;BME280;8533;48.426;10.868;2022-12-01T02:57:14;96541.01;;;1.57;100.00
16834;BME280;8533;48.426;10.868;2022-12-01T02:59:45;96536.17;;;1.58;100.00
16834;BME280;8533;48.426;10.868;2022-12-01T03:05:02;96539.86;;;1.60;100.00
16834;BME280;8533;48.426;10.868;2022-12-01T03:10:53;96543.27;;;1.56;100.00
16834;BME280;8533;48.426;10.868;2022-12-01T03:13:47;96535.51;;;1.60;100.00
16834;BME280;8533;48.426;10.868;2022-12-01T03:16:15;96533.42;;;1.60;100.00
16834;BME280;8533;48.426;10.868;2022-12-01T03:18:56;96517.67;;;1.54;100.00
16834;BME280;8533;48.426;10.868;2022-12-01T03:21:32;96515.55;;;1.58;100.00
16834;BME280;8533;48.426;10.868;2022-12-01T03:24:15;96512.97;;;1.58;100.00
16834;BME280;8533;48.426;10.868;2022-12-01T03:26:40;96514.43;;;1.57;100.00
16834;BME280;8533;48.426;10.868;2022-12-01T03:29:12;96519.10;;;1.57;100.00
16834;BME280;8533;48.426;10.868;2022-12-01T03:31:45;96535.23;;;1.55;100.00
16834;BME280;8533;48.426;10.868;2022-12-01T03:34:25;96539.09;;;1.55;100.00
16834;BME280;8533;48.426;10.868;2022-12-01T03:36:52;96529.90;;;1.57;100.00
16834;BME280;8533;48.426;10.868;2022-12-01T03:39:22;96535.54;;;1.56;100.00
16834;BME280;8533;48.426;10.868;2022-12-01T03:44:46;96533.77;;;1.57;100.00
16834;BME280;8533;48.426;10.868;2022-12-01T03:47:13;96529.90;;;1.57;100.00
16834;BME280;8533;48.426;10.868;2022-12-01T03:49:41;96521.19;;;1.58;100.00
16834;BME280;8533;48.426;10.868;2022-12-01T03:55:23;96530.35;;;1.60;100.00
16834;BME280;8533;48.426;10.868;2022-12-01T03:58:05;96528.27;;;1.60;100.00
16834;BME280;8533;48.426;10.868;2022-12-01T04:00:33;96530.35;;;1.60;100.00
16834;BME280;8533;48.426;10.868;2022-12-01T04:03:02;96532.37;;;1.65;100.00
16834;BME280;8533;48.426;10.868;2022-12-01T04:05:31;96538.75;;;1.58;100.00
16834;BME280;8533;48.426;10.868;2022-12-01T04:07:59;96538.44;;;1.57;100.00
16834;BME280;8533;48.426;10.868;2022-12-01T04:10:27;96533.59;;;1.58;100.00
16834;BME280;8533;48.426;10.868;2022-12-01T04:12:54;96539.00;;;1.63;100.00
16834;BME280;8533;48.426;10.868;2022-12-01T04:15:24;96548.08;;;1.59;100.00
16834;BME280;8533;48.426;10.868;2022-12-01T04:17:52;96544.05;;;1.61;100.00
16834;BME280;8533;48.426;10.868;2022-12-01T04:20:20;96538.26;;;1.59;100.00
16834;BME280;8533;48.426;10.868;2022-12-01T04:22:48;96541.47;;;1.61;100.00
16834;BME280;8533;48.426;10.868;2022-12-01T04:25:16;96544.64;;;1.63;100.00
16834;BME280;8533;48.426;10.868;2022-12-01T04:27:43;96540.74;;;1.67;100.00
16834;BME280;8533;48.426;10.868;2022-12-01T04:30:11;96543.01;;;1.66;100.00
16834;BME280;8533;48.426;10.868;2022-12-01T04:32:39;96540.42;;;1.66;100.00
16834;BME280;8533;48.426;10.868;2022-12-01T04:35:09;96543.95;;;1.69;100.00
16834;BME280;8533;48.426;10.868;2022-12-01T04:37:37;96542.03;;;1.67;100.00
16834;BME280;8533;48.426;10.868;2022-12-01T04:40:05;96543.09;;;1.72;100.00
16834;BME280;8533;48.426;10.868;2022-12-01T04:42:33;96535.52;;;1.71;100.00
16834;BME280;8533;48.426;10.868;2022-12-01T04:45:00;96530.60;;;1.65;100.00
16834;BME280;8533;48.426;10.868;2022-12-01T04:47:28;96537.50;;;1.69;100.00
16834;BME280;8533;48.426;10.868;2022-12-01T04:49:55;96533.50;;;1.66;100.00
16834;BME280;8533;48.426;10.868;2022-12-01T04:52:23;96525.77;;;1.66;100.00
16834;BME280;8533;48.426;10.868;2022-12-01T04:54:50;96534.64;;;1.64;100.00
16834;BME280;8533;48.426;10.868;2022-12-01T04:57:17;96535.13;;;1.63;100.00
16834;BME280;8533;48.426;10.868;2022-12-01T04:59:45;96524.96;;;1.66;100.00
16834;BME280;8533;48.426;10.868;2022-12-01T05:02:12;96526.91;;;1.64;100.00
16834;BME280;8533;48.426;10.868;2022-12-01T05:04:40;96530.98;;;1.62;100.00
16834;BME280;8533;48.426;10.868;2022-12-01T05:07:07;96535.76;;;1.65;100.00
16834;BME280;8533;48.426;10.868;2022-12-01T05:09:34;96538.16;;;1.67;100.00
16834;BME280;8533;48.426;10.868;2022-12-01T05:12:02;96537.50;;;1.69;100.00
16834;BME280;8533;48.426;10.868;2022-12-01T05:14:29;96536.33;;;1.71;100.00
16834;BME280;8533;48.426;10.868;2022-12-01T05:16:57;96529.88;;;1.71;100.00
16834;BME280;8533;48.426;10.868;2022-12-01T05:19:25;96537.33;;;1.70;100.00
16834;BME280;8533;48.426;10.868;2022-12-01T05:22:10;96543.09;;;1.72;100.00
16834;BME280;8533;48.426;10.868;2022-12-01T05:24:38;96543.46;;;1.69;100.00
16834;BME280;8533;48.426;10.868;2022-12-01T05:27:05;96537.12;;;1.72;100.00
16834;BME280;8533;48.426;10.868;2022-12-01T05:29:32;96540.50;;;1.72;100.00
16834;BME280;8533;48.426;10.868;2022-12-01T05:32:01;96548.93;;;1.70;100.00
16834;BME280;8533;48.426;10.868;2022-12-01T05:34:28;96545.23;;;1.69;100.00
16834;BME280;8533;48.426;10.868;2022-12-01T05:36:56;96540.50;;;1.72;100.00
16834;BME280;8533;48.426;10.868;2022-12-01T05:39:23;96536.22;;;1.69;100.00
16834;BME280;8533;48.426;10.868;2022-12-01T05:41:51;96537.02;;;1.69;100.00
16834;BME280;8533;48.426;10.868;2022-12-01T05:44:19;96542.03;;;1.67;100.00
16834;BME280;8533;48.426;10.868;2022-12-01T05:46:46;96538.34;;;1.65;100.00
16834;BME280;8533;48.426;10.868;2022-12-01T05:49:14;96538.66;;;1.66;100.00
16834;BME280;8533;48.426;10.868;2022-12-01T05:51:42;96543.80;;;1.66;100.00
16834;BME280;8533;48.426;10.868;2022-12-01T05:54:09;96535.73;;;1.69;100.00
16834;BME280;8533;48.426;10.868;2022-12-01T05:56:37;96541.30;;;1.73;100.00
16834;BME280;8533;48.426;10.868;2022-12-01T05:59:04;96540.99;;;1.72;100.00
16834;BME280;8533;48.426;10.868;2022-12-01T06:01:32;96546.36;;;1.70;100.00
16834;BME280;8533;48.426;10.868;2022-12-01T06:03:59;96538.34;;;1.65;100.00
16834;BME280;8533;48.426;10.868;2022-12-01T06:06:26;96548.52;;;1.77;100.00
16834;BME280;8533;48.426;10.868;2022-12-01T06:08:55;96553.37;;;1.76;100.00
16834;BME280;8533;48.426;10.868;2022-12-01T06:11:24;96550.61;;;1.78;100.00
16834;BME280;8533;48.426;10.868;2022-12-01T06:13:52;96547.03;;;1.79;100.00
16834;BME280;8533;48.426;10.868;2022-12-01T06:16:19;96549.84;;;1.73;100.00
16834;BME280;8533;48.426;10.868;2022-12-01T06:18:46;96546.61;;;1.75;100.00
16834;BME280;8533;48.426;10.868;2022-12-01T06:21:14;96545.14;;;1.77;100.00
16834;BME280;8533;48.426;10.868;2022-12-01T06:23:41;96546.78;;;1.74;100.00
16834;BME280;8533;48.426;10.868;2022-12-01T06:26:09;96551.80;;;1.71;100.00
16834;BME280;8533;48.426;10.868;2022-12-01T06:28:36;96550.33;;;1.73;100.00
16834;BME280;8533;48.426;10.868;2022-12-01T06:31:04;96547.33;;;1.69;100.00
16834;BME280;8533;48.426;10.868;2022-12-01T06:33:31;96553.08;;;1.71;100.00
16834;BME280;8533;48.426;10.868;2022-12-01T06:36:05;96551.86;;;1.67;100.00
16834;BME280;8533;48.426;10.868;2022-12-01T06:38:33;96557.19;;;1.66;100.00
16834;BME280;8533;48.426;10.868;2022-12-01T06:41:01;96555.41;;;1.66;100.00
16834;BME280;8533;48.426;10.868;2022-12-01T06:43:29;96556.35;;;1.69;100.00
16834;BME280;8533;48.426;10.868;2022-12-01T06:45:56;96561.45;;;1.73;100.00
16834;BME280;8533;48.426;10.868;2022-12-01T06:48:24;96560.78;;;1.75;100.00
16834;BME280;8533;48.426;10.868;2022-12-01T06:50:51;96555.80;;;1.74;100.00
16834;BME280;8533;48.426;10.868;2022-12-01T06:53:20;96563.36;;;1.75;100.00
16834;BME280;8533;48.426;10.868;2022-12-01T06:55:47;96565.63;;;1.74;100.00
16834;BME280;8533;48.426;10.868;2022-12-01T06:58:15;96557.58;;;1.73;100.00
16834;BME280;8533;48.426;10.868;2022-12-01T07:00:43;96561.13;;;1.72;100.00
16834;BME280;8533;48.426;10.868;2022-12-01T07:03:11;96563.54;;;1.74;100.00
16834;BME280;8533;48.426;10.868;2022-12-01T07:05:38;96559.81;;;1.76;100.00
16834;BME280;8533;48.426;10.868;2022-12-01T07:08:05;96573.02;;;1.77;100.00
16834;BME280;8533;48.426;10.868;2022-12-01T07:10:33;96577.00;;;1.80;100.00
16834;BME280;8533;48.426;10.868;2022-12-01T07:13:00;96576.65;;;1.83;100.00
16834;BME280;8533;48.426;10.868;2022-12-01T07:15:28;96578.25;;;1.84;100.00
16834;BME280;8533;48.426;10.868;2022-12-01T07:17:55;96577.28;;;1.85;100.00
16834;BME280;8533;48.426;10.868;2022-12-01T07:20:22;96576.48;;;1.84;100.00
16834;BME280;8533;48.426;10.868;2022-12-01T07:22:50;96581.00;;;1.82;100.00
16834;BME280;8533;48.426;10.868;2022-12-01T07:25:17;96577.77;;;1.84;100.00
16834;BME280;8533;48.426;10.868;2022-12-01T07:27:45;96582.12;;;1.84;100.00
16834;BME280;8533;48.426;10.868;2022-12-01T07:30:12;96581.31;;;1.83;100.00
16834;BME280;8533;48.426;10.868;2022-12-01T07:32:40;96580.03;;;1.83;100.00
16834;BME280;8533;48.426;10.868;2022-12-01T07:35:07;96587.94;;;1.82;100.00
16834;BME280;8533;48.426;10.868;2022-12-01T07:37:35;96591.77;;;1.86;100.00
16834;BME280;8533;48.426;10.868;2022-12-01T07:40:03;96588.50;;;1.88;100.00
16834;BME280;8533;48.426;10.868;2022-12-01T07:42:30;96588.88;;;1.85;100.00
16834;BME280;8533;48.426;10.868;2022-12-01T07:44:58;96590.17;;;1.85;100.00
16834;BME280;8533;48.426;10.868;2022-12-01T07:47:25;96590.77;;;1.87;100.00
16834;BME280;8533;48.426;10.868;2022-12-01T07:49:52;96595.72;;;1.93;100.00
16834;BME280;8533;48.426;10.868;2022-12-01T07:52:20;96594.75;;;1.94;100.00
16834;BME280;8533;48.426;10.868;2022-12-01T07:54:48;96597.12;;;1.95;100.00
16834;BME280;8533;48.426;10.868;2022-12-01T07:57:16;96599.70;;;1.95;100.00
16834;BME280;8533;48.426;10.868;2022-12-01T07:59:45;96602.91;;;1.97;100.00
16834;BME280;8533;48.426;10.868;2022-12-01T08:02:13;96594.69;;;1.98;100.00
16834;BME280;8533;48.426;10.868;2022-12-01T08:04:41;96594.69;;;1.98;100.00
16834;BME280;8533;48.426;10.868;2022-12-01T08:07:08;96589.66;;;2.00;100.00
16834;BME280;8533;48.426;10.868;2022-12-01T08:09:36;96591.44;;;2.00;100.00
16834;BME280;8533;48.426;10.868;2022-12-01T08:12:03;96590.58;;;2.03;100.00
16834;BME280;8533;48.426;10.868;2022-12-01T08:14:31;96595.25;;;2.04;100.00
16834;BME280;8533;48.426;10.868;2022-12-01T08:16:58;96587.71;;;2.02;100.00
16834;BME280;8533;48.426;10.868;2022-12-01T08:19:28;96598.14;;;2.05;100.00
16834;BME280;8533;48.426;10.868;2022-12-01T08:21:55;96595.52;;;2.09;100.00
16834;BME280;8533;48.426;10.868;2022-12-01T08:24:23;96604.17;;;2.12;100.00
16834;BME280;8533;48.426;10.868;2022-12-01T08:26:50;96599.02;;;2.12;100.00
16834;BME280;8533;48.426;10.868;2022-12-01T08:29:18;96594.34;;;2.11;100.00
16834;BME280;8533;48.426;10.868;2022-12-01T08:31:45;96597.62;;;2.09;100.00
16834;BME280;8533;48.426;10.868;2022-12-01T08:34:13;96595.84;;;2.10;100.00
16834;BME280;8533;48.426;10.868;2022-12-01T08:36:40;96597.06;;;2.14;100.00
16834;BME280;8533;48.426;10.868;2022-12-01T08:39:08;96597.86;;;2.14;100.00
16834;BME280;8533;48.426;10.868;2022-12-01T08:41:35;96599.12;;;2.18;100.00
16834;BME280;8533;48.426;10.868;2022-12-01T08:44:03;96601.31;;;2.21;100.00
16834;BME280;8533;48.426;10.868;2022-12-01T08:46:32;96599.05;;;2.22;100.00
16834;BME280;8533;48.426;10.868;2022-12-01T08:49:01;96598.08;;;2.23;100.00
16834;BME280;8533;48.426;10.868;2022-12-01T08:51:29;96594.66;;;2.27;100.00
16834;BME280;8533;48.426;10.868;2022-12-01T08:53:57;96601.21;;;2.29;100.00
16834;BME280;8533;48.426;10.868;2022-12-01T08:56:31;96603.55;;;2.24;100.00
16834;BME280;8533;48.426;10.868;2022-12-01T08:58:59;96600.72;;;2.30;100.00
16834;BME280;8533;48.426;10.868;2022-12-01T09:01:27;96604.17;;;2.26;100.00
16834;BME280;8533;48.426;10.868;2022-12-01T09:03:59;96597.27;;;2.23;100.00
16834;BME280;8533;48.426;10.868;2022-12-01T09:06:39;96608.81;;;2.16;100.00
16834;BME280;8533;48.426;10.868;2022-12-01T09:09:09;96602.19;;;2.18;100.00
16834;BME280;8533;48.426;10.868;2022-12-01T09:11:38;96602.50;;;2.19;100.00
16834;BME280;8533;48.426;10.868;2022-12-01T09:14:06;96605.08;;;2.19;100.00
16834;BME280;8533;48.426;10.868;2022-12-01T09:16:33;96608.56;;;2.22;100.00
16834;BME280;8533;48.426;10.868;2022-12-01T09:19:01;96607.24;;;2.26;100.00
16834;BME280;8533;48.426;10.868;2022-12-01T09:21:30;96605.75;;;2.27;100.00
16834;BME280;8533;48.426;10.868;2022-12-01T09:23:59;96605.33;;;2.24;100.00
16834;BME280;8533;48.426;10.868;2022-12-01T09:26:27;96613.06;;;2.24;100.00
16834;BME280;8533;48.426;10.868;2022-12-01T09:28:58;96607.03;;;2.27;100.00
16834;BME280;8533;48.426;10.868;2022-12-01T09:31:25;96607.42;;;2.24;100.00
16834;BME280;8533;48.426;10.868;2022-12-01T09:33:58;96609.20;;;2.24;100.00
16834;BME280;8533;48.426;10.868;2022-12-01T09:36:26;96605.36;;;2.20;100.00
16834;BME280;8533;48.426;10.868;2022-12-01T09:38:54;96604.70;;;2.22;100.00
16834;BME280;8533;48.426;10.868;2022-12-01T09:41:25;96602.56;;;2.25;100.00
16834;BME280;8533;48.426;10.868;2022-12-01T09:44:14;96600.16;;;2.24;100.00
16834;BME280;8533;48.426;10.868;2022-12-01T09:46:54;96603.86;;;2.25;100.00
16834;BME280;8533;48.426;10.868;2022-12-01T09:49:19;96603.13;;;2.32;100.00
16834;BME280;8533;48.426;10.868;2022-12-01T09:51:48;96601.34;;;2.32;100.00
16834;BME280;8533;48.426;10.868;2022-12-01T09:54:15;96603.20;;;2.38;100.00
16834;BME280;8533;48.426;10.868;2022-12-01T09:56:48;96599.08;;;2.33;100.00
16834;BME280;8533;48.426;10.868;2022-12-01T09:59:26;96596.22;;;2.43;100.00
16834;BME280;8533;48.426;10.868;2022-12-01T10:01:57;96588.27;;;2.44;100.00
16834;BME280;8533;48.426;10.868;2022-12-01T10:04:24;96591.60;;;2.49;100.00
16834;BME280;8533;48.426;10.868;2022-12-01T10:07:02;96588.39;;;2.47;100.00
16834;BME280;8533;48.426;10.868;2022-12-01T10:09:38;96580.89;;;2.52;100.00
16834;BME280;8533;48.426;10.868;2022-12-01T10:12:18;96581.96;;;2.57;100.00
16834;BME280;8533;48.426;10.868;2022-12-01T10:14:48;96579.75;;;2.65;100.00
16834;BME280;8533;48.426;10.868;2022-12-01T10:17:32;96577.66;;;2.64;100.00
16834;BME280;8533;48.426;10.868;2022-12-01T10:20:24;96579.08;;;2.67;100.00
16834;BME280;8533;48.426;10.868;2022-12-01T10:23:11;96579.89;;;2.67;100.00
16834;BME280;8533;48.426;10.868;2022-12-01T10:25:57;96580.59;;;2.61;100.00
16834;BME280;8533;48.426;10.868;2022-12-01T10:28:48;96581.09;;;2.61;100.00
16834;BME280;8533;48.426;10.868;2022-12-01T10:31:47;96571.13;;;2.68;100.00
16834;BME280;8533;48.426;10.868;2022-12-01T10:33:40;96573.66;;;2.73;100.00
16834;BME280;8533;48.426;10.868;2022-12-01T10:36:08;96568.50;;;2.73;100.00
16834;BME280;8533;48.426;10.868;2022-12-01T10:38:36;96562.71;;;2.71;100.00
16834;BME280;8533;48.426;10.868;2022-12-01T10:41:07;96568.37;;;2.70;100.00
16834;BME280;8533;48.426;10.868;2022-12-01T10:46:20;96559.10;;;2.76;100.00
16834;BME280;8533;48.426;10.868;2022-12-01T10:48:58;96557.05;;;2.71;100.00
16834;BME280;8533;48.426;10.868;2022-12-01T10:51:23;96559.38;;;2.77;100.00
16834;BME280;8533;48.426;10.868;2022-12-01T10:53:59;96555.51;;;2.77;100.00
16834;BME280;8533;48.426;10.868;2022-12-01T10:56:26;96557.19;;;2.74;100.00
16834;BME280;8533;48.426;10.868;2022-12-01T10:58:58;96554.61;;;2.74;100.00
16834;BME280;8533;48.426;10.868;2022-12-01T11:01:31;96557.86;;;2.72;100.00
16834;BME280;8533;48.426;10.868;2022-12-01T11:04:06;96553.27;;;2.67;100.00
16834;BME280;8533;48.426;10.868;2022-12-01T11:06:34;96547.30;;;2.66;100.00
16834;BME280;8533;48.426;10.868;2022-12-01T11:09:05;96540.14;;;2.68;100.00
16834;BME280;8533;48.426;10.868;2022-12-01T11:11:37;96534.80;;;2.70;100.00
16834;BME280;8533;48.426;10.868;2022-12-01T11:14:16;96536.75;;;2.68;100.00
16834;BME280;8533;48.426;10.868;2022-12-01T11:16:45;96531.36;;;2.74;100.00
16834;BME280;8533;48.426;10.868;2022-12-01T11:19:30;96532.39;;;2.79;100.00
16834;BME280;8533;48.426;10.868;2022-12-01T11:22:18;96534.61;;;2.82;100.00
16834;BME280;8533;48.426;10.868;2022-12-01T11:25:00;96528.88;;;2.76;100.00
16834;BME280;8533;48.426;10.868;2022-12-01T11:30:04;96528.65;;;2.82;100.00
16834;BME280;8533;48.426;10.868;2022-12-01T11:32:34;96529.55;;;2.85;100.00
16834;BME280;8533;48.426;10.868;2022-12-01T11:35:05;96526.78;;;2.86;100.00
16834;BME280;8533;48.426;10.868;2022-12-01T11:37:41;96531.64;;;2.85;100.00
16834;BME280;8533;48.426;10.868;2022-12-01T11:40:17;96526.47;;;2.85;100.00
16834;BME280;8533;48.426;10.868;2022-12-01T11:42:41;96530.04;;;2.84;100.00
16834;BME280;8533;48.426;10.868;2022-12-01T11:45:25;96531.59;;;2.89;100.00
16834;BME280;8533;48.426;10.868;2022-12-01T11:50:34;96521.75;;;2.89;100.00
16834;BME280;8533;48.426;10.868;2022-12-01T11:53:00;96522.42;;;2.87;100.00
16834;BME280;8533;48.426;10.868;2022-12-01T11:55:29;96526.03;;;2.92;100.00
16834;BME280;8533;48.426;10.868;2022-12-01T11:57:59;96526.16;;;2.95;100.00
16834;BME280;8533;48.426;10.868;2022-12-01T12:00:38;96528.43;;;2.94;100.00
16834;BME280;8533;48.426;10.868;2022-12-01T12:03:19;96522.86;;;2.90;100.00
16834;BME280;8533;48.426;10.868;2022-12-01T12:05:54;96527.22;;;2.90;100.00
16834;BME280;8533;48.426;10.868;2022-12-01T12:16:33;96509.06;;;2.94;100.00
16834;BME280;8533;48.426;10.868;2022-12-01T12:21:48;96508.06;;;3.05;100.00
16834;BME280;8533;48.426;10.868;2022-12-01T12:27:12;96510.46;;;3.07;100.00
16834;BME280;8533;48.426;10.868;2022-12-01T12:29:47;96500.71;;;3.09;100.00
16834;BME280;8533;48.426;10.868;2022-12-01T12:32:40;96497.84;;;3.08;100.00
16834;BME280;8533;48.426;10.868;2022-12-01T12:37:44;96495.14;;;3.05;100.00
16834;BME280;8533;48.426;10.868;2022-12-01T12:43:29;96492.91;;;3.13;100.00
16834;BME280;8533;48.426;10.868;2022-12-01T12:46:02;96496.20;;;3.18;100.00
16834;BME280;8533;48.426;10.868;2022-12-01T12:51:12;96507.73;;;3.15;100.00
16834;BME280;8533;48.426;10.868;2022-12-01T12:53:50;96507.83;;;3.18;100.00
16834;BME280;8533;48.426;10.868;2022-12-01T12:56:15;96502.59;;;3.22;100.00
16834;BME280;8533;48.426;10.868;2022-12-01T12:58:52;96502.30;;;3.21;100.00
16834;BME280;8533;48.426;10.868;2022-12-01T13:01:26;96495.03;;;3.20;100.00
16834;BME280;8533;48.426;10.868;2022-12-01T13:04:00;96495.16;;;3.23;100.00
16834;BME280;8533;48.426;10.868;2022-12-01T13:06:47;96500.33;;;3.23;100.00
16834;BME280;8533;48.426;10.868;2022-12-01T13:09:21;96497.34;;;3.26;100.00
16834;BME280;8533;48.426;10.868;2022-12-01T13:12:08;96494.45;;;3.25;100.00
16834;BME280;8533;48.426;10.868;2022-12-01T13:14:41;96498.45;;;3.27;100.00
16834;BME280;8533;48.426;10.868;2022-12-01T13:19:40;96488.14;;;3.17;100.00
16834;BME280;8533;48.426;10.868;2022-12-01T13:22:11;96494.54;;;3.21;100.00
16834;BME280;8533;48.426;10.868;2022-12-01T13:24:39;96490.08;;;3.25;100.00
16834;BME280;8533;48.426;10.868;2022-12-01T13:27:18;96489.98;;;3.23;100.00
16834;BME280;8533;48.426;10.868;2022-12-01T13:29:50;96490.08;;;3.25;100.00
16834;BME280;8533;48.426;10.868;2022-12-01T13:32:37;96490.84;;;3.19;100.00
16834;BME280;8533;48.426;10.868;2022-12-01T13:35:03;96487.22;;;3.24;100.00
16834;BME280;8533;48.426;10.868;2022-12-01T13:37:34;96490.52;;;3.29;100.00
16834;BME280;8533;48.426;10.868;2022-12-01T13:40:25;96483.86;;;3.30;100.00
16834;BME280;8533;48.426;10.868;2022-12-01T13:42:59;96487.25;;;3.31;100.00
16834;BME280;8533;48.426;10.868;2022-12-01T13:45:33;96483.34;;;3.24;100.00
16834;BME280;8533;48.426;10.868;2022-12-01T13:48:02;96487.80;;;3.26;100.00
16834;BME280;8533;48.426;10.868;2022-12-01T13:53:09;96487.92;;;3.29;100.00
16834;BME280;8533;48.426;10.868;2022-12-01T14:04:17;96481.38;;;3.33;100.00
16834;BME280;8533;48.426;10.868;2022-12-01T14:06:41;96481.47;;;3.29;100.00
16834;BME280;8533;48.426;10.868;2022-12-01T14:11:53;96485.34;;;3.29;100.00
16834;BME280;8533;48.426;10.868;2022-12-01T14:14:17;96483.86;;;3.30;100.00
16834;BME280;8533;48.426;10.868;2022-12-01T14:16:48;96485.47;;;3.31;100.00
16834;BME280;8533;48.426;10.868;2022-12-01T14:19:41;96491.12;;;3.31;100.00
16834;BME280;8533;48.426;10.868;2022-12-01T14:24:54;96489.71;;;3.28;100.00
16834;BME280;8533;48.426;10.868;2022-12-01T14:27:40;96491.50;;;3.28;100.00
16834;BME280;8533;48.426;10.868;2022-12-01T14:39:02;96490.94;;;3.32;100.00
16834;BME280;8533;48.426;10.868;2022-12-01T14:41:30;96487.55;;;3.32;100.00
16834;BME280;8533;48.426;10.868;2022-12-01T14:44:12;96487.92;;;3.29;100.00
16834;BME280;8533;48.426;10.868;2022-12-01T14:46:44;96490.20;;;3.28;100.00
16834;BME280;8533;48.426;10.868;2022-12-01T14:49:11;96487.13;;;3.28;100.00